Time;durP1;ratioP1;P1;durP2;ratioP2;P2;SDS_P1;SDS_P2;PMS_P1;PMS_P2;Temp;Humidity;BMP_temperature;BMP_pressure;BME280_temperature;BME280_humidity;BME280_pressure;Samples;Min_cycle;Max_cycle;Signal;HPM_P1;HPM_P2
2021/09/10 00:01:29;;;;;;;36.05;25.73;;;;;;;15.86;80.43;101051.63;5073716;28;20381;-76
2021/09/10 00:03:54;;;;;;;38.85;26.55;;;;;;;15.87;80.76;101058.75;5076737;28;20556;-76
2021/09/10 00:06:19;;;;;;;39.00;26.55;;;;;;;15.90;80.88;101049.91;5079405;28;20027;-76
2021/09/10 00:08:46;;;;;;;31.70;25.75;;;;;;;15.94;81.09;101048.19;5074547;28;20370;-76
2021/09/10 00:11:11;;;;;;;34.42;25.85;;;;;;;15.95;81.33;101057.25;5081732;28;20506;-76
2021/09/10 00:13:38;;;;;;;33.40;24.95;;;;;;;15.93;81.36;101049.31;5073895;28;20032;-76
2021/09/10 00:16:04;;;;;;;30.05;23.33;;;;;;;15.91;81.42;101048.00;5083901;28;20103;-76
2021/09/10 00:18:30;;;;;;;34.53;26.30;;;;;;;15.90;81.53;101049.91;5073797;28;20531;-77
2021/09/10 00:20:55;;;;;;;35.08;25.00;;;;;;;15.90;81.76;101049.91;5082848;28;20025;-76
2021/09/10 00:23:21;;;;;;;33.25;24.60;;;;;;;15.87;81.75;101053.25;5074173;28;20028;-76
2021/09/10 00:25:46;;;;;;;35.22;26.65;;;;;;;15.83;81.65;101046.75;5084565;28;20028;-77
2021/09/10 00:28:11;;;;;;;39.13;27.92;;;;;;;15.82;82.00;101042.34;5073863;28;20039;-76
2021/09/10 00:30:37;;;;;;;32.58;24.90;;;;;;;15.80;82.26;101044.59;5083463;28;20082;-76
2021/09/10 00:33:02;;;;;;;36.55;27.25;;;;;;;15.79;82.24;101051.22;5055951;28;20039;-76
2021/09/10 00:35:28;;;;;;;35.65;25.70;;;;;;;15.75;82.29;101045.50;5085848;28;20024;-76
2021/09/10 00:37:53;;;;;;;31.40;25.15;;;;;;;15.72;82.68;101050.81;5081331;28;20466;-76
2021/09/10 00:40:18;;;;;;;34.58;25.85;;;;;;;15.69;82.35;101049.47;5091653;28;20035;-76
2021/09/10 00:42:44;;;;;;;29.27;23.27;;;;;;;15.63;82.39;101050.66;5072715;28;20037;-76
2021/09/10 00:45:11;;;;;;;35.78;27.27;;;;;;;15.58;82.33;101049.91;5084046;28;20020;-76
2021/09/10 00:47:36;;;;;;;32.63;24.33;;;;;;;15.54;82.60;101049.69;5074751;28;20099;-76
2021/09/10 00:50:02;;;;;;;30.63;25.08;;;;;;;15.51;82.49;101048.34;5081296;28;20115;-76
2021/09/10 00:52:27;;;;;;;28.30;23.52;;;;;;;15.51;82.64;101051.09;5092434;28;20020;-76
2021/09/10 00:54:54;;;;;;;32.58;25.10;;;;;;;15.51;82.84;101053.03;5063059;28;20028;-76
2021/09/10 00:57:20;;;;;;;33.40;25.60;;;;;;;15.51;82.63;101050.28;5082735;28;20029;-77
2021/09/10 00:59:45;;;;;;;31.73;23.75;;;;;;;15.54;82.85;101053.25;5078106;28;20028;-76
2021/09/10 01:02:12;;;;;;;25.58;20.67;;;;;;;15.61;83.01;101054.81;5080929;28;20031;-76
2021/09/10 01:04:39;;;;;;;28.23;19.50;;;;;;;15.67;82.98;101054.41;5084606;28;20054;-77
2021/09/10 01:07:05;;;;;;;28.48;22.02;;;;;;;15.71;82.95;101054.66;5072278;28;20098;-77
2021/09/10 01:09:30;;;;;;;27.33;20.27;;;;;;;15.73;82.99;101057.91;5065559;28;20525;-76
2021/09/10 01:11:56;;;;;;;28.33;21.48;;;;;;;15.72;82.94;101053.56;5073913;28;20028;-76
2021/09/10 01:14:21;;;;;;;28.45;19.55;;;;;;;15.72;82.93;101056.31;5074120;28;20039;-76
2021/09/10 01:16:47;;;;;;;26.73;20.50;;;;;;;15.70;82.83;101053.03;5076240;28;20024;-76
2021/09/10 01:19:29;;;;;;;24.98;19.23;;;;;;;15.68;82.90;101049.72;5061834;28;20012;-76
2021/09/10 01:21:56;;;;;;;;;;;;;;;15.71;82.85;101054.66;5077365;28;20473;-76
2021/09/10 01:24:32;;;;;;;28.40;19.52;;;;;;;15.71;82.59;101054.66;5074726;28;19947;-76
2021/09/10 01:26:58;;;;;;;24.00;18.65;;;;;;;15.67;82.49;101048.91;5076420;28;20111;-76
2021/09/10 01:29:23;;;;;;;28.00;20.95;;;;;;;15.66;82.68;101046.47;5079471;28;20028;-76
2021/09/10 01:31:49;;;;;;;27.52;20.67;;;;;;;15.64;82.86;101048.72;5074152;28;20033;-76
2021/09/10 01:34:14;;;;;;;25.27;19.10;;;;;;;15.66;82.91;101052.78;5072091;28;20036;-76
2021/09/10 01:36:39;;;;;;;28.35;20.10;;;;;;;15.67;83.16;101053.59;5081767;28;20025;-76
2021/09/10 01:39:06;;;;;;;23.10;19.92;;;;;;;15.66;83.19;101040.97;5082784;28;20110;-76
2021/09/10 01:41:33;;;;;;;22.35;18.02;;;;;;;15.66;83.35;101047.31;5086350;28;20040;-77
2021/09/10 01:43:58;;;;;;;25.50;20.23;;;;;;;15.65;83.38;101053.09;5091540;28;20020;-76
2021/09/10 01:46:23;;;;;;;25.80;19.75;;;;;;;15.66;83.41;101052.78;5082686;28;20387;-77
2021/09/10 01:48:50;;;;;;;21.88;17.73;;;;;;;15.68;83.37;101045.06;5072777;28;20032;-76
2021/09/10 01:51:16;;;;;;;23.70;18.08;;;;;;;15.69;83.25;101048.66;5083061;28;20035;-77
2021/09/10 01:53:41;;;;;;;22.65;18.13;;;;;;;15.70;83.43;101044.78;5071599;28;20032;-76
2021/09/10 01:56:07;;;;;;;23.13;18.60;;;;;;;15.70;83.46;101050.28;5074570;28;20474;-77
2021/09/10 01:58:32;;;;;;;26.63;19.27;;;;;;;15.70;83.47;101042.03;5086870;28;20024;-76
2021/09/10 02:00:59;;;;;;;23.88;19.30;;;;;;;15.72;83.53;101048.06;5074482;28;20090;-77
2021/09/10 02:03:25;;;;;;;24.80;18.88;;;;;;;15.72;83.60;101045.31;5083625;28;20024;-76
2021/09/10 02:05:51;;;;;;;22.25;17.23;;;;;;;15.72;83.52;101045.31;5074834;28;20028;-76
2021/09/10 02:08:16;;;;;;;23.50;17.83;;;;;;;15.73;83.67;101052.41;5085776;28;20039;-76
2021/09/10 02:10:42;;;;;;;21.83;17.65;;;;;;;15.74;83.56;101054.03;5075442;28;20025;-76
2021/09/10 02:13:07;;;;;;;22.63;17.73;;;;;;;15.79;83.68;101056.69;5072560;28;20028;-76
2021/09/10 02:15:32;;;;;;;21.27;17.67;;;;;;;15.83;83.63;101052.25;5076119;28;20037;-76
2021/09/10 02:17:58;;;;;;;22.15;19.08;;;;;;;15.85;83.61;101052.78;5072597;28;20032;-76
2021/09/10 02:20:23;;;;;;;26.13;19.70;;;;;;;15.83;83.77;101046.75;5084737;28;20380;-76
2021/09/10 02:22:49;;;;;;;22.23;17.92;;;;;;;15.82;83.74;101056.09;5083428;28;20112;-76
2021/09/10 02:25:15;;;;;;;22.58;17.95;;;;;;;15.80;83.55;101046.56;5079905;28;20493;-76
2021/09/10 02:27:41;;;;;;;22.85;18.92;;;;;;;15.77;83.67;101053.47;5076032;28;20543;-76
2021/09/10 02:30:07;;;;;;;25.23;18.55;;;;;;;15.75;83.80;101047.44;5079874;28;20024;-77
2021/09/10 02:32:32;;;;;;;24.92;19.25;;;;;;;15.73;83.71;101049.69;5075487;28;20050;-76
2021/09/10 02:34:57;;;;;;;22.58;17.90;;;;;;;15.71;83.70;101052.75;5077990;28;20031;-76
2021/09/10 02:37:24;;;;;;;24.85;19.60;;;;;;;15.68;83.87;101049.72;5083833;28;20020;-76
2021/09/10 02:39:49;;;;;;;22.65;19.02;;;;;;;15.64;83.88;101043.22;5086697;28;20021;-76
2021/09/10 02:42:15;;;;;;;23.75;18.52;;;;;;;15.62;83.83;101045.44;5090030;28;20070;-76
2021/09/10 02:44:40;;;;;;;24.95;20.90;;;;;;;15.62;83.85;101042.69;5088893;28;20036;-76
2021/09/10 02:47:06;;;;;;;26.20;19.38;;;;;;;15.62;83.96;101050.94;5088437;28;20028;-76
2021/09/10 02:49:31;;;;;;;23.77;19.20;;;;;;;15.59;83.59;101043.31;5075766;28;20028;-76
2021/09/10 02:51:57;;;;;;;21.63;19.33;;;;;;;15.53;83.84;101043.38;5087190;28;20028;-76
2021/09/10 02:54:22;;;;;;;25.27;19.80;;;;;;;15.52;83.69;101040.94;5076151;28;20066;-76
2021/09/10 02:56:48;;;;;;;25.92;19.45;;;;;;;15.47;83.85;101039.09;5075621;28;20070;-76
2021/09/10 02:59:13;;;;;;;20.38;17.73;;;;;;;15.45;83.69;101044.06;5080573;28;20024;-77
2021/09/10 03:01:43;;;;;;;27.20;20.38;;;;;;;15.40;83.78;101041.41;5092762;28;20473;-77
2021/09/10 03:04:09;;;;;;;21.58;18.60;;;;;;;15.36;83.83;101043.13;5067959;28;20522;-77
2021/09/10 03:06:34;;;;;;;22.20;18.05;;;;;;;15.33;83.87;101038.22;5086842;28;20028;-77
2021/09/10 03:09:00;;;;;;;22.92;19.88;;;;;;;15.31;83.80;101037.72;5089385;28;20027;-77
2021/09/10 03:11:25;;;;;;;26.48;20.33;;;;;;;15.31;83.96;101038.53;5081989;28;20020;-76
2021/09/10 03:13:52;;;;;;;25.13;19.92;;;;;;;15.30;84.06;101038.81;5074428;28;20024;-76
2021/09/10 03:16:17;;;;;;;25.67;19.85;;;;;;;15.30;84.03;101036.06;5087432;28;20028;-76
2021/09/10 03:18:43;;;;;;;27.15;19.67;;;;;;;15.27;83.90;101033.94;5084814;28;20488;-76
2021/09/10 03:21:08;;;;;;;24.83;20.25;;;;;;;15.27;84.24;101021.00;5074204;28;20020;-76
2021/09/10 03:23:34;;;;;;;24.42;20.15;;;;;;;15.28;84.20;101030.09;5082422;28;20027;-76
2021/09/10 03:25:59;;;;;;;26.38;19.42;;;;;;;15.29;84.25;101026.22;5075456;28;20539;-76
2021/09/10 03:28:24;;;;;;;26.13;20.67;;;;;;;15.24;84.31;101027.09;5082481;28;20425;-76
2021/09/10 03:30:50;;;;;;;27.05;21.60;;;;;;;15.23;84.23;101024.66;5079835;28;20634;-76
2021/09/10 03:33:16;;;;;;;27.35;21.13;;;;;;;15.24;84.40;101024.34;5079853;28;20424;-76
2021/09/10 03:35:42;;;;;;;24.63;19.38;;;;;;;15.28;84.44;101021.84;5083465;28;20024;-76
2021/09/10 03:38:08;;;;;;;28.73;21.35;;;;;;;15.29;84.35;101020.72;5073674;28;20017;-76
2021/09/10 03:40:35;;;;;;;26.83;20.13;;;;;;;15.27;84.51;101021.00;5087802;28;20020;-76
2021/09/10 03:43:05;;;;;;;24.48;19.60;;;;;;;15.28;84.75;101019.09;5074811;28;20044;-76
2021/09/10 03:45:30;;;;;;;26.15;20.50;;;;;;;15.28;84.66;101019.09;5087967;28;20051;-76
2021/09/10 03:47:56;;;;;;;26.33;22.52;;;;;;;15.27;84.67;101022.94;5074687;28;20355;-76
2021/09/10 03:50:21;;;;;;;27.95;21.85;;;;;;;15.24;84.84;101018.84;5080724;28;20389;-76
2021/09/10 03:52:46;;;;;;;26.05;20.80;;;;;;;15.25;84.85;101016.91;5076542;28;20017;-76
2021/09/10 03:55:14;;;;;;;28.17;23.63;;;;;;;15.26;84.73;101015.81;5077885;28;20088;-76
2021/09/10 03:57:40;;;;;;;30.27;22.42;;;;;;;15.24;84.78;101009.81;5081160;28;20510;-76
2021/09/10 04:00:06;;;;;;;24.42;21.25;;;;;;;15.24;85.00;101018.06;5077367;28;20058;-76
2021/09/10 04:02:31;;;;;;;31.88;21.38;;;;;;;15.22;85.05;101015.63;5084107;28;20050;-76
2021/09/10 04:04:56;;;;;;;26.52;21.40;;;;;;;15.22;84.87;101020.28;5078395;28;20024;-76
2021/09/10 04:07:22;;;;;;;27.38;22.25;;;;;;;15.20;85.04;101014.28;5074356;28;20024;-76
2021/09/10 04:09:47;;;;;;;27.70;20.90;;;;;;;15.19;85.38;101012.63;5087633;28;20032;-76
2021/09/10 04:12:13;;;;;;;28.80;21.25;;;;;;;15.18;85.09;101008.25;5074272;28;20024;-76
2021/09/10 04:14:38;;;;;;;26.67;21.73;;;;;;;15.18;84.89;101003.59;5074603;28;20078;-76
2021/09/10 04:17:03;;;;;;;28.58;21.52;;;;;;;15.18;85.21;101002.78;5076046;28;20466;-76
2021/09/10 04:19:30;;;;;;;30.33;22.55;;;;;;;15.20;85.19;101011.53;5072699;28;20025;-76
2021/09/10 04:21:55;;;;;;;26.40;20.77;;;;;;;15.21;85.31;101011.22;5077237;28;20028;-76
2021/09/10 04:24:21;;;;;;;27.15;21.75;;;;;;;15.21;85.42;101013.16;5073890;28;20081;-76
2021/09/10 04:26:46;;;;;;;23.85;21.08;;;;;;;15.19;85.40;101015.38;5077887;28;20024;-76
2021/09/10 04:29:12;;;;;;;28.65;21.25;;;;;;;15.18;84.97;101005.53;5073792;28;20050;-76
2021/09/10 04:31:37;;;;;;;31.90;24.20;;;;;;;15.18;85.44;101009.06;5078616;28;20086;-75
2021/09/10 04:34:02;;;;;;;27.65;22.95;;;;;;;15.19;85.58;101007.94;5076717;28;20016;-76
2021/09/10 04:36:28;;;;;;;31.23;22.90;;;;;;;15.20;85.76;101014.28;5078807;28;20474;-76
2021/09/10 04:38:54;;;;;;;28.85;21.67;;;;;;;15.22;85.57;101009.28;5075127;28;20028;-76
2021/09/10 04:41:20;;;;;;;25.88;20.40;;;;;;;15.22;85.51;101014.78;5092150;28;20032;-76
2021/09/10 04:43:45;;;;;;;31.02;23.27;;;;;;;15.23;85.40;101010.94;5080119;28;20073;-76
2021/09/10 04:46:11;;;;;;;29.10;21.67;;;;;;;15.23;85.09;101011.75;5086364;28;20037;-76
2021/09/10 04:48:36;;;;;;;26.42;22.60;;;;;;;15.24;85.40;101013.38;5072559;28;20389;-76
2021/09/10 04:51:01;;;;;;;27.85;21.17;;;;;;;15.28;85.23;101013.59;5073653;28;20051;-76
2021/09/10 04:53:27;;;;;;;30.75;23.33;;;;;;;15.32;85.58;101017.38;5083045;28;20031;-76
2021/09/10 04:55:52;;;;;;;27.65;22.73;;;;;;;15.37;85.54;101020.03;5086289;28;20043;-76
2021/09/10 04:58:18;;;;;;;29.23;23.00;;;;;;;15.40;85.57;101021.38;5075230;28;20077;-76
2021/09/10 05:00:43;;;;;;;26.02;21.52;;;;;;;15.44;85.44;101023.22;5083260;28;20382;-76
2021/09/10 05:03:10;;;;;;;25.58;21.05;;;;;;;15.47;85.39;101019.06;5080731;28;20025;-76
2021/09/10 05:05:35;;;;;;;27.00;20.88;;;;;;;15.48;85.40;101017.94;5078030;28;20019;-76
2021/09/10 05:08:01;;;;;;;32.85;22.73;;;;;;;15.48;85.28;101028.91;5078456;28;20032;-76
2021/09/10 05:10:26;;;;;;;27.60;21.15;;;;;;;15.50;85.45;101023.94;5075374;28;20028;-76
2021/09/10 05:12:51;;;;;;;28.88;21.83;;;;;;;15.51;85.37;101018.13;5088369;28;20042;-76
2021/09/10 05:15:17;;;;;;;25.80;19.90;;;;;;;15.54;85.28;101017.53;5076726;28;20036;-76
2021/09/10 05:17:42;;;;;;;28.52;23.85;;;;;;;15.51;85.16;101023.63;5082716;28;20020;-76
2021/09/10 05:20:08;;;;;;;31.60;22.88;;;;;;;15.54;85.46;101017.53;5072607;28;20031;-76
2021/09/10 05:22:35;;;;;;;31.45;23.88;;;;;;;15.56;85.36;101024.69;5072930;28;20024;-76
2021/09/10 05:25:01;;;;;;;31.38;23.30;;;;;;;15.59;85.60;101026.81;5068841;28;20032;-76
2021/09/10 05:27:28;;;;;;;30.65;23.67;;;;;;;15.63;85.59;101025.06;5084346;28;20020;-76
2021/09/10 05:29:53;;;;;;;27.27;23.35;;;;;;;15.67;85.66;101028.88;5090221;28;20016;-77
2021/09/10 05:32:19;;;;;;;25.98;21.70;;;;;;;15.70;85.73;101036.53;5073889;28;20390;-76
2021/09/10 05:34:44;;;;;;;27.35;22.98;;;;;;;15.71;85.67;101029.91;5083319;28;20052;-76
2021/09/10 05:37:10;;;;;;;29.67;22.80;;;;;;;15.74;85.69;101026.56;5071371;28;20024;-75
2021/09/10 05:39:35;;;;;;;26.17;22.13;;;;;;;15.77;85.59;101031.47;5071532;28;20029;-76
2021/09/10 05:42:00;;;;;;;29.15;23.70;;;;;;;15.79;85.69;101029.22;5072936;28;20041;-76
2021/09/10 05:44:26;;;;;;;29.35;23.77;;;;;;;15.82;85.69;101033.28;5078130;28;20385;-76
2021/09/10 05:46:51;;;;;;;29.42;24.10;;;;;;;15.84;85.71;101031.88;5079362;28;20024;-76
2021/09/10 05:49:17;;;;;;;32.22;24.20;;;;;;;15.87;85.67;101031.25;5071401;28;20051;-76
2021/09/10 05:51:42;;;;;;;31.05;22.92;;;;;;;15.90;85.68;101030.66;5073554;28;20024;-76
2021/09/10 05:54:07;;;;;;;27.83;22.25;;;;;;;15.96;85.71;101031.41;5072514;28;20020;-76
2021/09/10 05:56:33;;;;;;;31.00;21.92;;;;;;;15.98;85.59;101027.19;5077850;28;20029;-76
2021/09/10 05:58:58;;;;;;;27.25;23.83;;;;;;;16.01;85.53;101034.03;5083551;28;20017;-76
2021/09/10 06:01:24;;;;;;;26.48;22.92;;;;;;;16.05;85.54;101032.31;5084973;28;20031;-76
2021/09/10 06:03:49;;;;;;;27.70;20.98;;;;;;;16.10;85.57;101034.16;5086983;28;20020;-76
2021/09/10 06:06:15;;;;;;;26.23;21.13;;;;;;;16.13;85.52;101023.34;5082009;28;20469;-76
2021/09/10 06:08:41;;;;;;;27.77;21.67;;;;;;;16.17;85.48;101023.53;5078439;28;20027;-76
2021/09/10 06:11:06;;;;;;;27.10;21.10;;;;;;;16.21;85.23;101019.06;5094971;28;20016;-76
2021/09/10 06:13:32;;;;;;;25.58;20.92;;;;;;;16.28;85.33;101029.66;5079258;28;20477;-76
2021/09/10 06:15:57;;;;;;;26.52;21.63;;;;;;;16.31;85.32;101029.84;5078492;28;20024;-76
2021/09/10 06:18:22;;;;;;;25.42;19.50;;;;;;;16.35;85.14;101025.38;5081471;28;20024;-76
2021/09/10 06:20:48;;;;;;;23.35;20.17;;;;;;;16.37;84.96;101027.84;5076639;28;20025;-76
2021/09/10 06:23:13;;;;;;;24.10;21.02;;;;;;;16.40;84.91;101029.97;5083603;28;20028;-76
2021/09/10 06:25:39;;;;;;;25.77;18.80;;;;;;;16.45;84.83;101026.28;5079501;28;20024;-76
2021/09/10 06:28:04;;;;;;;23.05;19.17;;;;;;;16.49;84.52;101025.38;5084731;28;20394;-76
2021/09/10 06:30:29;;;;;;;23.88;19.67;;;;;;;16.51;84.28;101025.06;5090398;28;20024;-76
2021/09/10 06:32:55;;;;;;;24.05;18.85;;;;;;;16.53;84.10;101031.06;5084743;28;20032;-76
2021/09/10 06:35:22;;;;;;;24.40;19.42;;;;;;;16.58;84.13;101029.00;5075804;28;20025;-76
2021/09/10 06:37:48;;;;;;;20.52;17.65;;;;;;;16.61;83.76;101038.59;5084797;28;20060;-76
2021/09/10 06:40:13;;;;;;;22.27;18.83;;;;;;;16.64;83.69;101037.97;5076073;28;20032;-77
2021/09/10 06:42:39;;;;;;;24.00;19.83;;;;;;;16.71;83.69;101040.31;5086011;28;20524;-75
2021/09/10 06:45:05;;;;;;;21.40;18.58;;;;;;;16.78;83.38;101049.03;5076169;28;20020;-75
2021/09/10 06:47:31;;;;;;;22.63;17.10;;;;;;;16.84;83.22;101043.06;5074750;28;20032;-76
2021/09/10 06:49:56;;;;;;;19.80;16.95;;;;;;;16.89;83.00;101047.66;5075789;28;20086;-76
2021/09/10 06:52:23;;;;;;;20.80;17.95;;;;;;;16.92;82.71;101044.28;5070986;28;20024;-76
2021/09/10 06:54:48;;;;;;;21.20;17.80;;;;;;;16.98;82.67;101053.25;5075850;28;20070;-76
2021/09/10 06:57:14;;;;;;;20.85;17.60;;;;;;;17.02;82.80;101054.25;5082001;28;20028;-76
2021/09/10 06:59:39;;;;;;;20.25;16.92;;;;;;;17.06;82.58;101047.00;5080524;28;20025;-75
2021/09/10 07:02:04;;;;;;;18.77;15.40;;;;;;;17.12;82.01;101053.19;5077180;28;20016;-75
2021/09/10 07:04:30;;;;;;;19.13;16.23;;;;;;;17.15;81.78;101055.31;5088151;28;20032;-75
2021/09/10 07:06:56;;;;;;;19.25;17.23;;;;;;;17.18;81.58;101047.25;5078593;28;20065;-77
2021/09/10 07:09:21;;;;;;;20.70;16.67;;;;;;;17.22;81.34;101052.97;5074842;28;20134;-76
2021/09/10 07:11:47;;;;;;;20.38;17.08;;;;;;;17.29;81.08;101056.88;5077554;28;20028;-76
2021/09/10 07:14:12;;;;;;;20.77;16.75;;;;;;;17.35;80.97;101048.50;5075263;28;20024;-76
2021/09/10 07:16:37;;;;;;;19.70;16.45;;;;;;;17.40;80.80;101056.66;5077101;28;20031;-76
2021/09/10 07:19:03;;;;;;;20.05;15.95;;;;;;;17.48;80.83;101051.19;5095415;28;20035;-76
2021/09/10 07:21:28;;;;;;;17.92;15.23;;;;;;;17.55;80.26;101049.97;5066950;28;20127;-76
2021/09/10 07:23:54;;;;;;;20.10;16.17;;;;;;;17.60;79.99;101053.41;5075654;28;20071;-77
2021/09/10 07:26:20;;;;;;;18.88;16.88;;;;;;;17.64;79.94;101065.41;5079293;28;20028;-76
2021/09/10 07:28:47;;;;;;;20.25;15.70;;;;;;;17.72;79.89;101059.13;5077448;28;20031;-76
2021/09/10 07:31:12;;;;;;;19.70;17.45;;;;;;;17.75;79.61;101063.22;5084450;28;20382;-76
2021/09/10 07:33:41;;;;;;;16.95;15.15;;;;;;;17.83;79.64;101064.44;5079137;28;20020;-76
2021/09/10 07:36:07;;;;;;;17.48;15.45;;;;;;;17.87;79.26;101068.16;5075051;28;20040;-76
2021/09/10 07:38:33;;;;;;;17.15;15.30;;;;;;;17.93;79.05;101072.44;5079340;28;20086;-76
2021/09/10 07:40:59;;;;;;;15.75;13.95;;;;;;;18.00;78.63;101072.78;5073682;28;20056;-77
2021/09/10 07:43:24;;;;;;;16.33;14.63;;;;;;;18.06;78.58;101070.69;5070557;28;20048;-76
2021/09/10 07:45:49;;;;;;;17.95;15.02;;;;;;;18.13;78.13;101071.06;5077308;28;20474;-76
2021/09/10 07:48:15;;;;;;;16.50;14.45;;;;;;;18.19;78.09;101075.31;5080229;28;20043;-76
2021/09/10 07:50:41;;;;;;;20.75;15.68;;;;;;;18.24;77.83;101068.84;5074673;28;20031;-76
2021/09/10 07:53:06;;;;;;;19.13;15.35;;;;;;;18.30;77.46;101075.84;5080736;28;20033;-76
2021/09/10 07:55:31;;;;;;;14.73;12.35;;;;;;;18.38;77.21;101077.81;5073103;28;20025;-76
2021/09/10 07:57:57;;;;;;;16.35;14.63;;;;;;;18.47;76.63;101080.59;5085444;28;20520;-76
2021/09/10 08:00:22;;;;;;;17.33;13.48;;;;;;;18.55;76.23;101083.41;5074660;28;20029;-77
2021/09/10 08:02:48;;;;;;;15.05;13.35;;;;;;;18.67;75.75;101068.16;5084715;28;20060;-77
2021/09/10 08:05:14;;;;;;;14.43;12.05;;;;;;;18.69;74.88;101076.91;5075764;28;20035;-77
2021/09/10 08:07:40;;;;;;;17.02;12.90;;;;;;;18.76;74.40;101071.78;5083342;28;20032;-77
2021/09/10 08:10:06;;;;;;;13.68;11.55;;;;;;;18.82;74.36;101076.00;5077715;28;20031;-77
2021/09/10 08:12:31;;;;;;;14.70;12.63;;;;;;;18.89;73.72;101076.34;5081594;28;20038;-77
2021/09/10 08:14:57;;;;;;;17.83;11.95;;;;;;;18.95;73.26;101077.00;5079558;28;20048;-77
2021/09/10 08:17:22;;;;;;;14.02;11.20;;;;;;;19.01;72.77;101061.88;5077923;28;20028;-77
2021/09/10 08:19:50;;;;;;;12.55;10.82;;;;;;;19.08;71.64;101071.31;5089370;28;20035;-77
2021/09/10 08:22:17;;;;;;;12.15;10.93;;;;;;;19.13;71.58;101066.78;5077382;28;20144;-77
2021/09/10 08:24:44;;;;;;;13.35;10.32;;;;;;;19.21;71.21;101063.22;5082883;28;20032;-77
2021/09/10 08:27:09;;;;;;;15.73;12.25;;;;;;;19.29;70.70;101062.41;5072720;28;20030;-77
2021/09/10 08:29:35;;;;;;;13.68;10.23;;;;;;;19.39;70.37;101067.56;5083074;28;20016;-77
2021/09/10 08:32:00;;;;;;;17.27;10.55;;;;;;;19.46;69.65;101065.13;5078700;28;20032;-77
2021/09/10 08:34:25;;;;;;;13.10;10.50;;;;;;;19.58;68.56;101060.88;5074166;28;20378;-77
2021/09/10 08:36:51;;;;;;;10.35;9.30;;;;;;;19.68;68.45;101063.34;5073738;28;20082;-77
2021/09/10 08:39:16;;;;;;;11.23;9.93;;;;;;;19.73;67.66;101065.94;5074270;28;20048;-77
2021/09/10 08:41:42;;;;;;;10.80;9.70;;;;;;;19.77;67.54;101060.56;5073607;28;20502;-77
2021/09/10 08:44:07;;;;;;;11.43;10.25;;;;;;;19.84;66.93;101056.16;5070635;28;20028;-77
2021/09/10 08:46:37;;;;;;;13.43;10.02;;;;;;;19.88;66.72;101068.16;5073017;28;20024;-76
2021/09/10 08:49:04;;;;;;;14.25;10.63;;;;;;;19.98;66.21;101067.00;5072189;28;20151;-77
2021/09/10 08:51:30;;;;;;;15.02;10.73;;;;;;;20.08;66.02;101060.28;5073568;28;20107;-77
2021/09/10 08:53:55;;;;;;;14.45;10.68;;;;;;;20.17;65.86;101064.66;5082069;28;20098;-78
2021/09/10 08:56:21;;;;;;;12.48;10.20;;;;;;;20.26;65.71;101067.38;5073606;28;20509;-76
2021/09/10 08:58:46;;;;;;;12.65;10.55;;;;;;;20.35;65.66;101072.88;5073918;28;20028;-76
2021/09/10 09:01:12;;;;;;;11.45;9.45;;;;;;;20.48;64.96;101068.25;5073295;28;20032;-76
2021/09/10 09:03:37;;;;;;;11.88;8.85;;;;;;;20.62;64.52;101074.38;5081345;28;20024;-76
2021/09/10 09:06:04;;;;;;;13.95;9.00;;;;;;;20.68;64.08;101067.53;5073188;28;20035;-76
2021/09/10 09:08:30;;;;;;;10.30;9.23;;;;;;;20.81;63.95;101068.41;5081754;28;20024;-77
2021/09/10 09:11:02;;;;;;;12.27;9.65;;;;;;;20.88;63.67;101070.66;5082642;28;20539;-76
2021/09/10 09:13:28;;;;;;;10.63;8.95;;;;;;;20.97;63.08;101063.06;5088692;28;20166;-77
2021/09/10 09:16:18;;;;;;;10.27;7.90;;;;;;;21.09;61.42;101060.38;5083683;28;20031;-76
2021/09/10 09:18:50;;;;;;;10.00;7.63;;;;;;;21.21;60.47;101057.66;5082126;28;20021;-76
2021/09/10 09:21:26;;;;;;;10.90;8.30;;;;;;;21.31;59.13;101058.38;5072180;28;20032;-76
2021/09/10 09:23:52;;;;;;;8.45;7.40;;;;;;;21.36;57.80;101059.03;5076277;28;20028;-76
2021/09/10 09:26:20;;;;;;;13.95;8.00;;;;;;;21.49;57.30;101062.66;5073160;28;20478;-76
2021/09/10 09:28:46;;;;;;;9.38;8.30;;;;;;;21.55;56.79;101058.50;5084156;28;20051;-76
2021/09/10 09:31:12;;;;;;;13.90;9.00;;;;;;;21.60;56.02;101065.81;5084007;28;20052;-76
2021/09/10 09:33:42;;;;;;;10.50;8.32;;;;;;;21.71;55.82;101065.03;5090318;28;20043;-76
2021/09/10 09:36:15;;;;;;;11.90;8.80;;;;;;;21.84;55.79;101067.84;5072957;28;20062;-76
2021/09/10 09:38:41;;;;;;;9.57;8.68;;;;;;;21.94;55.93;101057.13;5083496;28;20489;-76
2021/09/10 09:41:14;;;;;;;10.73;8.57;;;;;;;22.04;55.58;101058.63;5087009;28;20032;-76
2021/09/10 09:43:43;;;;;;;10.13;8.75;;;;;;;;;;5084449;28;20028;-76
2021/09/10 09:46:16;;;;;;;10.43;8.20;;;;;;;22.15;55.14;101054.25;5084484;28;20029;-76
2021/09/10 09:48:44;;;;;;;18.45;9.43;;;;;;;22.12;54.63;101049.38;5083120;28;20534;-76
2021/09/10 09:51:10;;;;;;;9.40;8.45;;;;;;;22.17;54.67;101049.16;5078314;28;20033;-76
2021/09/10 09:53:36;;;;;;;10.35;8.75;;;;;;;22.24;54.39;101051.41;5083288;28;20318;-76
2021/09/10 09:56:03;;;;;;;10.50;8.75;;;;;;;22.28;53.87;101043.19;5070872;28;20027;-76
2021/09/10 09:58:29;;;;;;;11.65;8.35;;;;;;;22.33;54.09;101057.66;5073806;28;20042;-76
2021/09/10 10:00:55;;;;;;;9.68;8.30;;;;;;;22.42;54.33;101051.97;5080575;28;20024;-76
2021/09/10 10:03:21;;;;;;;9.77;8.38;;;;;;;22.54;54.05;101046.41;5067614;28;20535;-76
2021/09/10 10:05:46;;;;;;;11.48;8.02;;;;;;;22.67;53.37;101046.38;5071642;28;20040;-76
2021/09/10 10:08:19;;;;;;;11.38;8.27;;;;;;;22.73;53.72;101045.81;5084406;28;20069;-76
2021/09/10 10:10:47;;;;;;;10.15;9.02;;;;;;;22.80;53.38;101046.00;5071841;28;20024;-76
2021/09/10 10:13:18;;;;;;;10.15;8.68;;;;;;;22.86;52.95;101046.56;5079025;28;20028;-76
2021/09/10 10:15:44;;;;;;;11.40;9.10;;;;;;;22.98;52.94;101043.81;5071661;28;20025;-77
2021/09/10 10:18:11;;;;;;;10.35;8.43;;;;;;;23.09;52.21;101040.53;5071539;28;20393;-76
2021/09/10 10:20:46;;;;;;;10.77;8.82;;;;;;;23.19;52.17;101042.78;5076002;28;20025;-76
2021/09/10 10:23:42;;;;;;;10.70;8.60;;;;;;;23.34;51.68;101044.03;5084247;28;20032;-76
2021/09/10 10:26:10;;;;;;;10.15;8.48;;;;;;;23.47;51.37;101040.84;5072453;28;20027;-76
2021/09/10 10:28:45;;;;;;;10.25;9.15;;;;;;;23.54;50.56;101045.78;5080532;28;20035;-76
2021/09/10 10:31:11;;;;;;;11.85;8.52;;;;;;;23.61;51.54;101043.19;5072304;28;20029;-76
2021/09/10 10:33:36;;;;;;;9.55;7.93;;;;;;;23.74;50.94;101043.97;5081211;28;20078;-76
2021/09/10 10:36:33;;;;;;;9.55;8.55;;;;;;;23.81;50.21;101049.72;5060671;28;20357;-75
2021/09/10 10:39:07;;;;;;;13.10;9.20;;;;;;;23.80;49.71;101048.09;5085262;28;20028;-76
2021/09/10 10:41:59;;;;;;;11.98;8.45;;;;;;;23.83;49.24;101044.59;5081744;28;20076;-76
2021/09/10 10:44:33;;;;;;;11.38;9.13;;;;;;;24.02;49.30;101040.31;5083005;28;20061;-76
2021/09/10 10:47:08;;;;;;;10.95;8.50;;;;;;;24.20;48.97;101040.72;5075764;28;20447;-76
2021/09/10 10:49:52;;;;;;;12.32;8.55;;;;;;;24.23;48.31;101038.06;5079337;28;20047;-76
2021/09/10 10:52:26;;;;;;;9.73;8.48;;;;;;;24.32;48.08;101038.66;5096090;28;20028;-76
2021/09/10 10:55:20;;;;;;;10.23;8.50;;;;;;;24.49;48.06;101036.69;5086495;28;20028;-77
2021/09/10 10:57:48;;;;;;;12.75;8.68;;;;;;;24.61;47.43;101035.75;5076074;28;20082;-76
2021/09/10 11:00:43;;;;;;;13.70;8.88;;;;;;;24.72;47.37;101036.81;5087174;28;20024;-76
2021/09/10 11:03:14;;;;;;;13.35;8.98;;;;;;;24.81;47.04;101031.84;5053096;28;20041;-76
2021/09/10 11:05:43;;;;;;;9.27;8.27;;;;;;;25.02;46.91;101025.91;5075678;28;20033;-76
2021/09/10 11:08:09;;;;;;;9.65;8.65;;;;;;;25.07;46.24;101039.56;5075562;28;20032;-76
2021/09/10 11:10:35;;;;;;;9.48;8.57;;;;;;;24.98;45.81;101030.59;5088320;28;20032;-76